sensor_id;sensor_type;location;lat;lon;timestamp;P1;durP1;ratioP1;P2;durP2;ratioP2
59518;SDS011;46994;54.976;73.404;2022-07-10T00:02:20;8.85;;;3.95;;
59518;SDS011;46994;54.976;73.404;2022-07-10T00:04:47;33.45;;;4.60;;
59518;SDS011;46994;54.976;73.404;2022-07-10T00:07:14;16.17;;;4.22;;
59518;SDS011;46994;54.976;73.404;2022-07-10T00:09:40;6.22;;;3.38;;
59518;SDS011;46994;54.976;73.404;2022-07-10T00:12:07;6.57;;;4.15;;
59518;SDS011;46994;54.976;73.404;2022-07-10T00:14:34;18.52;;;4.68;;
59518;SDS011;46994;54.976;73.404;2022-07-10T00:17:00;9.77;;;4.60;;
59518;SDS011;46994;54.976;73.404;2022-07-10T00:19:27;8.40;;;3.83;;
59518;SDS011;46994;54.976;73.404;2022-07-10T00:21:54;10.10;;;4.35;;
59518;SDS011;46994;54.976;73.404;2022-07-10T00:24:20;15.45;;;4.05;;
59518;SDS011;46994;54.976;73.404;2022-07-10T00:26:47;10.73;;;3.78;;
59518;SDS011;46994;54.976;73.404;2022-07-10T00:29:14;8.57;;;3.78;;
59518;SDS011;46994;54.976;73.404;2022-07-10T00:31:41;7.32;;;3.97;;
59518;SDS011;46994;54.976;73.404;2022-07-10T00:34:08;23.98;;;4.28;;
59518;SDS011;46994;54.976;73.404;2022-07-10T00:36:35;20.20;;;4.60;;
59518;SDS011;46994;54.976;73.404;2022-07-10T00:39:01;7.13;;;4.00;;
59518;SDS011;46994;54.976;73.404;2022-07-10T00:41:28;13.32;;;4.40;;
59518;SDS011;46994;54.976;73.404;2022-07-10T00:43:56;8.27;;;4.25;;
59518;SDS011;46994;54.976;73.404;2022-07-10T00:46:25;8.52;;;4.00;;
59518;SDS011;46994;54.976;73.404;2022-07-10T00:48:53;12.23;;;4.50;;
59518;SDS011;46994;54.976;73.404;2022-07-10T00:51:21;8.18;;;4.38;;
59518;SDS011;46994;54.976;73.404;2022-07-10T00:53:49;10.88;;;4.03;;
59518;SDS011;46994;54.976;73.404;2022-07-10T00:56:17;6.70;;;4.22;;
59518;SDS011;46994;54.976;73.404;2022-07-10T00:58:47;6.70;;;4.28;;
59518;SDS011;46994;54.976;73.404;2022-07-10T01:01:17;7.72;;;4.05;;
59518;SDS011;46994;54.976;73.404;2022-07-10T01:03:44;14.15;;;4.15;;
59518;SDS011;46994;54.976;73.404;2022-07-10T01:06:12;8.73;;;4.60;;
59518;SDS011;46994;54.976;73.404;2022-07-10T01:08:40;14.60;;;4.85;;
59518;SDS011;46994;54.976;73.404;2022-07-10T01:11:08;6.97;;;4.80;;
59518;SDS011;46994;54.976;73.404;2022-07-10T01:13:38;7.95;;;4.60;;
59518;SDS011;46994;54.976;73.404;2022-07-10T01:16:05;4.45;;;4.05;;
59518;SDS011;46994;54.976;73.404;2022-07-10T01:18:32;10.27;;;3.60;;
59518;SDS011;46994;54.976;73.404;2022-07-10T01:20:59;6.70;;;4.75;;
59518;SDS011;46994;54.976;73.404;2022-07-10T01:23:26;10.63;;;4.68;;
59518;SDS011;46994;54.976;73.404;2022-07-10T01:25:53;7.60;;;4.20;;
59518;SDS011;46994;54.976;73.404;2022-07-10T01:28:20;16.95;;;4.90;;
59518;SDS011;46994;54.976;73.404;2022-07-10T01:30:48;23.33;;;4.55;;
59518;SDS011;46994;54.976;73.404;2022-07-10T01:33:15;7.03;;;4.30;;
59518;SDS011;46994;54.976;73.404;2022-07-10T01:35:41;15.63;;;4.35;;
59518;SDS011;46994;54.976;73.404;2022-07-10T01:38:08;8.13;;;4.38;;
59518;SDS011;46994;54.976;73.404;2022-07-10T01:40:35;13.68;;;4.60;;
59518;SDS011;46994;54.976;73.404;2022-07-10T01:43:02;11.38;;;4.35;;
59518;SDS011;46994;54.976;73.404;2022-07-10T01:45:28;6.22;;;4.07;;
59518;SDS011;46994;54.976;73.404;2022-07-10T01:47:55;14.05;;;4.85;;
59518;SDS011;46994;54.976;73.404;2022-07-10T01:50:23;13.18;;;4.68;;
59518;SDS011;46994;54.976;73.404;2022-07-10T01:52:50;10.07;;;4.90;;
59518;SDS011;46994;54.976;73.404;2022-07-10T01:55:16;25.25;;;7.35;;
59518;SDS011;46994;54.976;73.404;2022-07-10T01:57:43;26.80;;;8.35;;
59518;SDS011;46994;54.976;73.404;2022-07-10T02:00:10;30.83;;;7.53;;
59518;SDS011;46994;54.976;73.404;2022-07-10T02:02:40;30.65;;;7.03;;
59518;SDS011;46994;54.976;73.404;2022-07-10T02:05:07;12.77;;;5.63;;
59518;SDS011;46994;54.976;73.404;2022-07-10T02:07:34;17.58;;;5.22;;
59518;SDS011;46994;54.976;73.404;2022-07-10T02:10:01;11.77;;;5.20;;
59518;SDS011;46994;54.976;73.404;2022-07-10T02:12:28;10.32;;;4.53;;
59518;SDS011;46994;54.976;73.404;2022-07-10T02:14:54;6.97;;;4.72;;
59518;SDS011;46994;54.976;73.404;2022-07-10T02:17:25;17.58;;;4.57;;
59518;SDS011;46994;54.976;73.404;2022-07-10T02:19:52;15.50;;;4.57;;
59518;SDS011;46994;54.976;73.404;2022-07-10T02:22:37;14.15;;;5.72;;
59518;SDS011;46994;54.976;73.404;2022-07-10T02:25:04;16.90;;;5.35;;
59518;SDS011;46994;54.976;73.404;2022-07-10T02:27:31;17.23;;;4.90;;
59518;SDS011;46994;54.976;73.404;2022-07-10T02:29:58;9.80;;;5.15;;
59518;SDS011;46994;54.976;73.404;2022-07-10T02:32:24;10.38;;;4.75;;
59518;SDS011;46994;54.976;73.404;2022-07-10T02:34:51;13.10;;;5.07;;
59518;SDS011;46994;54.976;73.404;2022-07-10T02:37:18;15.13;;;4.75;;
59518;SDS011;46994;54.976;73.404;2022-07-10T02:39:45;12.38;;;4.93;;
59518;SDS011;46994;54.976;73.404;2022-07-10T02:42:11;15.30;;;4.65;;
59518;SDS011;46994;54.976;73.404;2022-07-10T02:44:38;8.02;;;4.22;;
59518;SDS011;46994;54.976;73.404;2022-07-10T02:47:05;15.90;;;4.78;;
59518;SDS011;46994;54.976;73.404;2022-07-10T02:49:32;15.48;;;4.60;;
59518;SDS011;46994;54.976;73.404;2022-07-10T02:51:59;12.35;;;4.95;;
59518;SDS011;46994;54.976;73.404;2022-07-10T02:54:26;19.58;;;5.25;;
59518;SDS011;46994;54.976;73.404;2022-07-10T02:56:52;19.55;;;5.20;;
59518;SDS011;46994;54.976;73.404;2022-07-10T02:59:19;9.27;;;4.43;;
59518;SDS011;46994;54.976;73.404;2022-07-10T03:01:46;22.80;;;4.93;;
59518;SDS011;46994;54.976;73.404;2022-07-10T03:04:13;13.05;;;5.10;;
59518;SDS011;46994;54.976;73.404;2022-07-10T03:06:39;24.50;;;5.82;;
59518;SDS011;46994;54.976;73.404;2022-07-10T03:09:06;29.60;;;5.53;;
59518;SDS011;46994;54.976;73.404;2022-07-10T03:11:33;27.98;;;6.05;;
59518;SDS011;46994;54.976;73.404;2022-07-10T03:14:00;26.70;;;6.85;;
59518;SDS011;46994;54.976;73.404;2022-07-10T03:16:26;25.77;;;5.85;;
59518;SDS011;46994;54.976;73.404;2022-07-10T03:18:53;36.83;;;6.95;;
59518;SDS011;46994;54.976;73.404;2022-07-10T03:21:20;23.33;;;6.72;;
59518;SDS011;46994;54.976;73.404;2022-07-10T03:23:47;22.15;;;6.07;;
59518;SDS011;46994;54.976;73.404;2022-07-10T03:26:13;30.80;;;5.90;;
59518;SDS011;46994;54.976;73.404;2022-07-10T03:28:40;31.25;;;7.13;;
59518;SDS011;46994;54.976;73.404;2022-07-10T03:31:07;39.55;;;6.22;;
59518;SDS011;46994;54.976;73.404;2022-07-10T03:33:33;36.03;;;7.20;;
59518;SDS011;46994;54.976;73.404;2022-07-10T03:36:00;52.80;;;8.52;;
59518;SDS011;46994;54.976;73.404;2022-07-10T03:38:30;26.98;;;7.32;;
59518;SDS011;46994;54.976;73.404;2022-07-10T03:40:57;35.50;;;8.13;;
59518;SDS011;46994;54.976;73.404;2022-07-10T03:43:24;23.85;;;5.88;;
59518;SDS011;46994;54.976;73.404;2022-07-10T03:45:51;23.10;;;5.15;;
59518;SDS011;46994;54.976;73.404;2022-07-10T03:48:17;20.10;;;5.05;;
59518;SDS011;46994;54.976;73.404;2022-07-10T03:50:44;40.88;;;8.00;;
59518;SDS011;46994;54.976;73.404;2022-07-10T03:53:11;51.15;;;8.23;;
59518;SDS011;46994;54.976;73.404;2022-07-10T03:55:38;48.47;;;9.35;;
59518;SDS011;46994;54.976;73.404;2022-07-10T03:58:05;65.32;;;10.15;;
59518;SDS011;46994;54.976;73.404;2022-07-10T04:00:31;48.17;;;10.35;;
59518;SDS011;46994;54.976;73.404;2022-07-10T04:03:02;48.35;;;8.20;;
59518;SDS011;46994;54.976;73.404;2022-07-10T04:05:30;68.38;;;13.07;;
59518;SDS011;46994;54.976;73.404;2022-07-10T04:07:58;108.20;;;16.15;;
59518;SDS011;46994;54.976;73.404;2022-07-10T04:10:27;132.13;;;17.60;;
59518;SDS011;46994;54.976;73.404;2022-07-10T04:12:55;61.70;;;10.82;;
59518;SDS011;46994;54.976;73.404;2022-07-10T04:15:22;56.28;;;14.00;;
59518;SDS011;46994;54.976;73.404;2022-07-10T04:17:49;65.93;;;11.75;;
59518;SDS011;46994;54.976;73.404;2022-07-10T04:20:16;56.05;;;10.57;;
59518;SDS011;46994;54.976;73.404;2022-07-10T04:22:44;102.28;;;12.43;;
59518;SDS011;46994;54.976;73.404;2022-07-10T04:25:12;73.25;;;11.93;;
59518;SDS011;46994;54.976;73.404;2022-07-10T04:27:39;81.70;;;16.48;;
59518;SDS011;46994;54.976;73.404;2022-07-10T04:30:06;104.05;;;18.27;;
59518;SDS011;46994;54.976;73.404;2022-07-10T04:32:33;71.75;;;11.63;;
59518;SDS011;46994;54.976;73.404;2022-07-10T04:35:00;99.07;;;13.68;;
59518;SDS011;46994;54.976;73.404;2022-07-10T04:37:29;77.88;;;13.35;;
59518;SDS011;46994;54.976;73.404;2022-07-10T04:39:56;102.15;;;15.00;;
59518;SDS011;46994;54.976;73.404;2022-07-10T04:42:23;107.55;;;18.80;;
59518;SDS011;46994;54.976;73.404;2022-07-10T04:44:50;101.97;;;14.93;;
59518;SDS011;46994;54.976;73.404;2022-07-10T04:47:17;111.20;;;15.98;;
59518;SDS011;46994;54.976;73.404;2022-07-10T04:49:44;120.30;;;17.02;;
59518;SDS011;46994;54.976;73.404;2022-07-10T04:52:10;104.88;;;16.95;;
59518;SDS011;46994;54.976;73.404;2022-07-10T04:54:37;55.50;;;8.98;;
59518;SDS011;46994;54.976;73.404;2022-07-10T04:57:04;82.38;;;14.40;;
59518;SDS011;46994;54.976;73.404;2022-07-10T04:59:31;96.35;;;13.55;;
59518;SDS011;46994;54.976;73.404;2022-07-10T05:01:57;87.20;;;11.35;;
59518;SDS011;46994;54.976;73.404;2022-07-10T05:04:24;70.30;;;11.57;;
59518;SDS011;46994;54.976;73.404;2022-07-10T05:06:51;50.75;;;7.55;;
59518;SDS011;46994;54.976;73.404;2022-07-10T05:09:18;73.18;;;11.75;;
59518;SDS011;46994;54.976;73.404;2022-07-10T05:11:47;31.02;;;6.45;;
59518;SDS011;46994;54.976;73.404;2022-07-10T05:14:14;32.03;;;8.07;;
59518;SDS011;46994;54.976;73.404;2022-07-10T05:16:42;59.63;;;10.73;;
59518;SDS011;46994;54.976;73.404;2022-07-10T05:19:09;49.30;;;7.25;;
59518;SDS011;46994;54.976;73.404;2022-07-10T05:21:35;117.97;;;17.98;;
59518;SDS011;46994;54.976;73.404;2022-07-10T05:24:02;63.08;;;10.38;;
59518;SDS011;46994;54.976;73.404;2022-07-10T05:26:29;36.47;;;6.57;;
59518;SDS011;46994;54.976;73.404;2022-07-10T05:28:56;45.75;;;7.82;;
59518;SDS011;46994;54.976;73.404;2022-07-10T05:31:22;36.03;;;7.47;;
59518;SDS011;46994;54.976;73.404;2022-07-10T05:33:49;40.55;;;9.10;;
59518;SDS011;46994;54.976;73.404;2022-07-10T05:36:16;74.05;;;9.98;;
59518;SDS011;46994;54.976;73.404;2022-07-10T05:38:43;26.15;;;6.68;;
59518;SDS011;46994;54.976;73.404;2022-07-10T05:41:10;31.67;;;5.53;;
59518;SDS011;46994;54.976;73.404;2022-07-10T05:43:36;13.93;;;5.28;;
59518;SDS011;46994;54.976;73.404;2022-07-10T05:46:03;19.17;;;5.13;;
59518;SDS011;46994;54.976;73.404;2022-07-10T05:48:31;22.75;;;7.00;;
59518;SDS011;46994;54.976;73.404;2022-07-10T05:50:58;16.92;;;5.22;;
59518;SDS011;46994;54.976;73.404;2022-07-10T05:53:25;37.15;;;6.03;;
59518;SDS011;46994;54.976;73.404;2022-07-10T05:55:52;9.68;;;5.25;;
59518;SDS011;46994;54.976;73.404;2022-07-10T05:58:18;22.52;;;5.78;;
59518;SDS011;46994;54.976;73.404;2022-07-10T06:00:45;10.68;;;3.80;;
59518;SDS011;46994;54.976;73.404;2022-07-10T06:03:12;9.55;;;4.63;;
59518;SDS011;46994;54.976;73.404;2022-07-10T06:05:39;11.13;;;4.93;;
59518;SDS011;46994;54.976;73.404;2022-07-10T06:08:05;44.83;;;8.38;;
59518;SDS011;46994;54.976;73.404;2022-07-10T06:10:32;78.88;;;13.15;;
59518;SDS011;46994;54.976;73.404;2022-07-10T06:12:59;49.97;;;8.80;;
59518;SDS011;46994;54.976;73.404;2022-07-10T06:15:26;25.60;;;7.30;;
59518;SDS011;46994;54.976;73.404;2022-07-10T06:17:55;16.55;;;5.03;;
59518;SDS011;46994;54.976;73.404;2022-07-10T06:20:24;47.80;;;10.82;;
59518;SDS011;46994;54.976;73.404;2022-07-10T06:22:52;19.63;;;5.18;;
59518;SDS011;46994;54.976;73.404;2022-07-10T06:25:19;33.17;;;6.70;;
59518;SDS011;46994;54.976;73.404;2022-07-10T06:27:46;51.30;;;9.45;;
59518;SDS011;46994;54.976;73.404;2022-07-10T06:30:12;31.58;;;7.55;;
59518;SDS011;46994;54.976;73.404;2022-07-10T06:32:39;11.77;;;5.18;;
59518;SDS011;46994;54.976;73.404;2022-07-10T06:35:06;10.13;;;3.78;;
59518;SDS011;46994;54.976;73.404;2022-07-10T06:37:34;8.00;;;3.88;;
59518;SDS011;46994;54.976;73.404;2022-07-10T06:40:00;9.70;;;4.20;;
59518;SDS011;46994;54.976;73.404;2022-07-10T06:42:27;10.93;;;3.90;;
59518;SDS011;46994;54.976;73.404;2022-07-10T06:44:59;7.63;;;3.70;;
59518;SDS011;46994;54.976;73.404;2022-07-10T06:47:25;9.32;;;3.80;;
59518;SDS011;46994;54.976;73.404;2022-07-10T06:50:10;7.85;;;4.40;;
59518;SDS011;46994;54.976;73.404;2022-07-10T06:52:37;10.63;;;3.85;;
59518;SDS011;46994;54.976;73.404;2022-07-10T06:55:04;8.88;;;3.55;;
59518;SDS011;46994;54.976;73.404;2022-07-10T06:57:31;13.60;;;3.42;;
59518;SDS011;46994;54.976;73.404;2022-07-10T06:59:58;7.28;;;3.78;;
59518;SDS011;46994;54.976;73.404;2022-07-10T07:02:25;9.00;;;3.80;;
59518;SDS011;46994;54.976;73.404;2022-07-10T07:04:52;15.27;;;4.07;;
59518;SDS011;46994;54.976;73.404;2022-07-10T07:07:19;10.88;;;3.45;;
59518;SDS011;46994;54.976;73.404;2022-07-10T07:09:45;14.48;;;4.18;;
59518;SDS011;46994;54.976;73.404;2022-07-10T07:12:16;7.22;;;4.05;;
59518;SDS011;46994;54.976;73.404;2022-07-10T07:14:44;16.13;;;4.82;;
59518;SDS011;46994;54.976;73.404;2022-07-10T07:17:10;12.90;;;3.80;;
59518;SDS011;46994;54.976;73.404;2022-07-10T07:19:40;5.63;;;3.75;;
59518;SDS011;46994;54.976;73.404;2022-07-10T07:22:25;8.73;;;3.78;;
59518;SDS011;46994;54.976;73.404;2022-07-10T07:25:10;9.20;;;3.90;;
59518;SDS011;46994;54.976;73.404;2022-07-10T07:27:38;10.43;;;3.58;;
59518;SDS011;46994;54.976;73.404;2022-07-10T07:30:11;11.05;;;3.80;;
59518;SDS011;46994;54.976;73.404;2022-07-10T07:32:43;21.83;;;5.10;;
59518;SDS011;46994;54.976;73.404;2022-07-10T07:35:12;6.22;;;4.18;;
59518;SDS011;46994;54.976;73.404;2022-07-10T07:37:40;5.97;;;4.05;;
59518;SDS011;46994;54.976;73.404;2022-07-10T07:40:08;12.48;;;4.45;;
59518;SDS011;46994;54.976;73.404;2022-07-10T07:42:37;13.85;;;4.45;;
59518;SDS011;46994;54.976;73.404;2022-07-10T07:45:04;36.35;;;8.52;;
59518;SDS011;46994;54.976;73.404;2022-07-10T07:47:39;22.98;;;6.78;;
59518;SDS011;46994;54.976;73.404;2022-07-10T07:50:10;15.40;;;4.60;;
59518;SDS011;46994;54.976;73.404;2022-07-10T07:52:41;4.13;;;3.60;;
59518;SDS011;46994;54.976;73.404;2022-07-10T07:55:08;8.85;;;3.92;;
59518;SDS011;46994;54.976;73.404;2022-07-10T07:57:36;5.35;;;4.03;;
59518;SDS011;46994;54.976;73.404;2022-07-10T08:00:04;20.02;;;3.88;;
59518;SDS011;46994;54.976;73.404;2022-07-10T08:02:38;14.82;;;4.40;;
59518;SDS011;46994;54.976;73.404;2022-07-10T08:05:05;8.48;;;3.67;;
59518;SDS011;46994;54.976;73.404;2022-07-10T08:07:40;15.30;;;3.92;;
59518;SDS011;46994;54.976;73.404;2022-07-10T08:10:09;13.15;;;3.70;;
59518;SDS011;46994;54.976;73.404;2022-07-10T08:12:37;4.13;;;3.65;;
59518;SDS011;46994;54.976;73.404;2022-07-10T08:15:06;3.70;;;3.20;;
59518;SDS011;46994;54.976;73.404;2022-07-10T08:17:34;6.63;;;3.30;;
59518;SDS011;46994;54.976;73.404;2022-07-10T08:20:01;9.80;;;3.80;;
59518;SDS011;46994;54.976;73.404;2022-07-10T08:22:29;8.80;;;3.78;;
59518;SDS011;46994;54.976;73.404;2022-07-10T08:24:56;15.50;;;5.20;;
59518;SDS011;46994;54.976;73.404;2022-07-10T08:27:23;8.70;;;4.28;;
59518;SDS011;46994;54.976;73.404;2022-07-10T08:29:50;14.18;;;3.90;;
59518;SDS011;46994;54.976;73.404;2022-07-10T08:32:17;8.82;;;4.35;;
59518;SDS011;46994;54.976;73.404;2022-07-10T08:34:44;20.67;;;4.68;;
59518;SDS011;46994;54.976;73.404;2022-07-10T08:37:10;10.23;;;4.90;;
59518;SDS011;46994;54.976;73.404;2022-07-10T08:39:37;8.38;;;4.03;;
59518;SDS011;46994;54.976;73.404;2022-07-10T08:42:04;5.57;;;4.53;;
59518;SDS011;46994;54.976;73.404;2022-07-10T08:44:35;6.88;;;5.25;;
59518;SDS011;46994;54.976;73.404;2022-07-10T08:47:03;6.43;;;4.70;;
59518;SDS011;46994;54.976;73.404;2022-07-10T08:49:31;7.93;;;4.03;;
59518;SDS011;46994;54.976;73.404;2022-07-10T08:54:32;4.82;;;3.40;;
59518;SDS011;46994;54.976;73.404;2022-07-10T08:57:01;6.60;;;3.80;;
59518;SDS011;46994;54.976;73.404;2022-07-10T08:59:29;9.07;;;3.90;;
59518;SDS011;46994;54.976;73.404;2022-07-10T09:01:56;7.90;;;3.85;;
59518;SDS011;46994;54.976;73.404;2022-07-10T09:04:25;13.18;;;3.90;;
59518;SDS011;46994;54.976;73.404;2022-07-10T09:06:53;11.23;;;3.80;;
59518;SDS011;46994;54.976;73.404;2022-07-10T09:09:21;13.05;;;3.85;;
59518;SDS011;46994;54.976;73.404;2022-07-10T09:11:47;14.02;;;3.42;;
59518;SDS011;46994;54.976;73.404;2022-07-10T09:14:15;6.18;;;3.47;;
59518;SDS011;46994;54.976;73.404;2022-07-10T09:16:43;10.52;;;3.78;;
59518;SDS011;46994;54.976;73.404;2022-07-10T09:21:42;18.23;;;4.70;;
59518;SDS011;46994;54.976;73.404;2022-07-10T09:24:10;34.80;;;8.60;;
59518;SDS011;46994;54.976;73.404;2022-07-10T09:26:38;30.52;;;5.28;;
59518;SDS011;46994;54.976;73.404;2022-07-10T09:29:14;6.47;;;3.45;;
59518;SDS011;46994;54.976;73.404;2022-07-10T09:31:54;6.72;;;3.25;;
59518;SDS011;46994;54.976;73.404;2022-07-10T09:34:41;10.48;;;3.25;;
59518;SDS011;46994;54.976;73.404;2022-07-10T09:37:20;10.68;;;3.70;;
59518;SDS011;46994;54.976;73.404;2022-07-10T09:39:58;39.20;;;7.30;;
59518;SDS011;46994;54.976;73.404;2022-07-10T09:45:16;5.85;;;3.70;;
59518;SDS011;46994;54.976;73.404;2022-07-10T09:47:54;5.03;;;3.10;;
59518;SDS011;46994;54.976;73.404;2022-07-10T09:50:35;18.73;;;3.53;;
59518;SDS011;46994;54.976;73.404;2022-07-10T09:53:03;3.95;;;3.05;;
59518;SDS011;46994;54.976;73.404;2022-07-10T09:55:33;8.02;;;3.22;;
59518;SDS011;46994;54.976;73.404;2022-07-10T09:58:05;11.90;;;3.13;;
59518;SDS011;46994;54.976;73.404;2022-07-10T10:05:41;7.88;;;3.30;;
59518;SDS011;46994;54.976;73.404;2022-07-10T10:08:21;9.68;;;3.60;;
59518;SDS011;46994;54.976;73.404;2022-07-10T10:10:52;6.55;;;3.13;;
59518;SDS011;46994;54.976;73.404;2022-07-10T10:13:23;6.50;;;3.35;;
59518;SDS011;46994;54.976;73.404;2022-07-10T10:15:51;19.20;;;3.30;;
59518;SDS011;46994;54.976;73.404;2022-07-10T10:18:19;3.72;;;3.10;;
59518;SDS011;46994;54.976;73.404;2022-07-10T10:20:50;3.55;;;2.83;;
59518;SDS011;46994;54.976;73.404;2022-07-10T10:23:20;3.33;;;3.03;;
59518;SDS011;46994;54.976;73.404;2022-07-10T10:25:52;6.60;;;4.13;;
59518;SDS011;46994;54.976;73.404;2022-07-10T10:28:21;6.03;;;3.80;;
59518;SDS011;46994;54.976;73.404;2022-07-10T10:30:55;13.52;;;3.70;;
59518;SDS011;46994;54.976;73.404;2022-07-10T10:35:57;5.65;;;3.75;;
59518;SDS011;46994;54.976;73.404;2022-07-10T10:38:24;11.27;;;3.33;;
59518;SDS011;46994;54.976;73.404;2022-07-10T10:49:47;6.78;;;3.15;;
59518;SDS011;46994;54.976;73.404;2022-07-10T10:52:23;14.07;;;3.13;;
59518;SDS011;46994;54.976;73.404;2022-07-10T10:57:33;8.55;;;3.17;;
59518;SDS011;46994;54.976;73.404;2022-07-10T11:00:03;8.65;;;2.95;;
59518;SDS011;46994;54.976;73.404;2022-07-10T11:02:34;17.33;;;3.80;;
59518;SDS011;46994;54.976;73.404;2022-07-10T11:13:03;7.68;;;3.53;;
59518;SDS011;46994;54.976;73.404;2022-07-10T11:15:33;9.13;;;3.20;;
59518;SDS011;46994;54.976;73.404;2022-07-10T11:18:05;3.88;;;3.47;;
59518;SDS011;46994;54.976;73.404;2022-07-10T11:20:34;6.95;;;3.53;;
59518;SDS011;46994;54.976;73.404;2022-07-10T11:31:20;5.45;;;3.60;;
59518;SDS011;46994;54.976;73.404;2022-07-10T11:33:48;7.68;;;3.22;;
59518;SDS011;46994;54.976;73.404;2022-07-10T11:36:20;5.57;;;3.30;;
59518;SDS011;46994;54.976;73.404;2022-07-10T11:38:59;5.28;;;3.47;;
59518;SDS011;46994;54.976;73.404;2022-07-10T11:41:33;5.15;;;3.45;;
59518;SDS011;46994;54.976;73.404;2022-07-10T11:44:01;8.43;;;3.25;;
59518;SDS011;46994;54.976;73.404;2022-07-10T11:46:29;5.10;;;2.88;;
59518;SDS011;46994;54.976;73.404;2022-07-10T11:49:03;12.20;;;3.50;;
59518;SDS011;46994;54.976;73.404;2022-07-10T11:54:07;8.45;;;3.50;;
59518;SDS011;46994;54.976;73.404;2022-07-10T11:56:37;5.32;;;2.85;;
59518;SDS011;46994;54.976;73.404;2022-07-10T11:59:08;15.95;;;3.65;;
59518;SDS011;46994;54.976;73.404;2022-07-10T12:01:43;10.05;;;3.50;;
59518;SDS011;46994;54.976;73.404;2022-07-10T12:04:12;7.15;;;3.83;;
59518;SDS011;46994;54.976;73.404;2022-07-10T12:06:40;13.00;;;3.75;;
59518;SDS011;46994;54.976;73.404;2022-07-10T12:09:13;16.35;;;3.97;;
59518;SDS011;46994;54.976;73.404;2022-07-10T12:11:42;3.53;;;3.20;;
59518;SDS011;46994;54.976;73.404;2022-07-10T12:16:37;7.25;;;3.78;;
59518;SDS011;46994;54.976;73.404;2022-07-10T12:19:06;10.00;;;3.65;;
59518;SDS011;46994;54.976;73.404;2022-07-10T12:21:33;7.40;;;3.70;;
59518;SDS011;46994;54.976;73.404;2022-07-10T12:24:00;9.93;;;3.33;;
59518;SDS011;46994;54.976;73.404;2022-07-10T12:26:33;3.83;;;3.25;;
59518;SDS011;46994;54.976;73.404;2022-07-10T12:29:02;23.77;;;3.90;;
59518;SDS011;46994;54.976;73.404;2022-07-10T12:31:29;5.75;;;3.22;;
59518;SDS011;46994;54.976;73.404;2022-07-10T12:34:04;9.10;;;3.75;;
59518;SDS011;46994;54.976;73.404;2022-07-10T12:36:41;3.80;;;3.40;;
59518;SDS011;46994;54.976;73.404;2022-07-10T12:39:09;3.53;;;3.15;;
59518;SDS011;46994;54.976;73.404;2022-07-10T12:44:37;4.55;;;3.28;;
59518;SDS011;46994;54.976;73.404;2022-07-10T12:47:15;6.60;;;3.72;;
59518;SDS011;46994;54.976;73.404;2022-07-10T12:52:31;19.38;;;3.60;;
59518;SDS011;46994;54.976;73.404;2022-07-10T12:55:07;6.97;;;3.35;;
59518;SDS011;46994;54.976;73.404;2022-07-10T12:57:56;7.75;;;4.18;;
59518;SDS011;46994;54.976;73.404;2022-07-10T13:00:30;6.07;;;3.70;;
59518;SDS011;46994;54.976;73.404;2022-07-10T13:05:31;9.43;;;3.88;;
59518;SDS011;46994;54.976;73.404;2022-07-10T13:08:05;11.65;;;3.83;;
59518;SDS011;46994;54.976;73.404;2022-07-10T13:10:55;18.33;;;3.70;;
59518;SDS011;46994;54.976;73.404;2022-07-10T13:13:22;16.33;;;3.72;;
59518;SDS011;46994;54.976;73.404;2022-07-10T13:15:49;5.22;;;3.50;;
59518;SDS011;46994;54.976;73.404;2022-07-10T13:18:19;6.03;;;4.00;;
59518;SDS011;46994;54.976;73.404;2022-07-10T13:20:48;19.17;;;4.13;;
59518;SDS011;46994;54.976;73.404;2022-07-10T13:23:16;9.50;;;4.13;;
59518;SDS011;46994;54.976;73.404;2022-07-10T13:25:45;14.98;;;3.65;;
59518;SDS011;46994;54.976;73.404;2022-07-10T13:28:12;7.22;;;3.53;;
59518;SDS011;46994;54.976;73.404;2022-07-10T13:30:38;6.40;;;3.67;;
59518;SDS011;46994;54.976;73.404;2022-07-10T13:33:05;8.15;;;5.05;;
59518;SDS011;46994;54.976;73.404;2022-07-10T13:35:33;16.95;;;4.20;;
59518;SDS011;46994;54.976;73.404;2022-07-10T13:38:01;6.70;;;3.67;;
59518;SDS011;46994;54.976;73.404;2022-07-10T13:40:29;10.15;;;4.00;;
59518;SDS011;46994;54.976;73.404;2022-07-10T13:42:57;7.03;;;3.13;;
59518;SDS011;46994;54.976;73.404;2022-07-10T13:48:18;20.48;;;3.63;;
59518;SDS011;46994;54.976;73.404;2022-07-10T13:50:45;8.55;;;3.22;;
59518;SDS011;46994;54.976;73.404;2022-07-10T13:53:13;6.30;;;3.35;;
59518;SDS011;46994;54.976;73.404;2022-07-10T13:55:40;5.20;;;3.35;;
59518;SDS011;46994;54.976;73.404;2022-07-10T13:58:26;7.93;;;4.22;;
59518;SDS011;46994;54.976;73.404;2022-07-10T14:00:56;19.73;;;4.68;;
59518;SDS011;46994;54.976;73.404;2022-07-10T14:03:25;10.88;;;4.88;;
59518;SDS011;46994;54.976;73.404;2022-07-10T14:05:53;21.58;;;5.13;;
59518;SDS011;46994;54.976;73.404;2022-07-10T14:08:20;10.68;;;4.13;;
59518;SDS011;46994;54.976;73.404;2022-07-10T14:10:46;21.85;;;5.10;;
59518;SDS011;46994;54.976;73.404;2022-07-10T14:13:13;22.98;;;4.60;;
59518;SDS011;46994;54.976;73.404;2022-07-10T14:15:40;6.57;;;4.53;;
59518;SDS011;46994;54.976;73.404;2022-07-10T14:18:10;17.42;;;5.53;;
59518;SDS011;46994;54.976;73.404;2022-07-10T14:20:37;7.15;;;5.07;;
59518;SDS011;46994;54.976;73.404;2022-07-10T14:24:20;12.20;;;5.90;;
59518;SDS011;46994;54.976;73.404;2022-07-10T14:26:46;12.73;;;5.38;;
59518;SDS011;46994;54.976;73.404;2022-07-10T14:29:13;21.48;;;5.70;;
59518;SDS011;46994;54.976;73.404;2022-07-10T14:31:40;21.15;;;5.20;;
59518;SDS011;46994;54.976;73.404;2022-07-10T14:34:07;11.30;;;4.38;;
59518;SDS011;46994;54.976;73.404;2022-07-10T14:36:34;23.58;;;5.03;;
59518;SDS011;46994;54.976;73.404;2022-07-10T14:39:01;22.83;;;5.20;;
59518;SDS011;46994;54.976;73.404;2022-07-10T14:41:28;14.75;;;5.55;;
59518;SDS011;46994;54.976;73.404;2022-07-10T14:43:55;19.10;;;5.63;;
59518;SDS011;46994;54.976;73.404;2022-07-10T14:46:22;19.42;;;5.07;;
59518;SDS011;46994;54.976;73.404;2022-07-10T14:48:49;27.65;;;5.30;;
59518;SDS011;46994;54.976;73.404;2022-07-10T14:51:18;15.05;;;4.88;;
59518;SDS011;46994;54.976;73.404;2022-07-10T14:53:44;11.30;;;5.00;;
59518;SDS011;46994;54.976;73.404;2022-07-10T14:56:13;20.95;;;5.30;;
59518;SDS011;46994;54.976;73.404;2022-07-10T14:58:42;13.70;;;5.50;;
59518;SDS011;46994;54.976;73.404;2022-07-10T15:01:09;18.13;;;5.75;;
59518;SDS011;46994;54.976;73.404;2022-07-10T15:03:36;25.90;;;5.55;;
59518;SDS011;46994;54.976;73.404;2022-07-10T15:06:04;14.02;;;5.32;;
59518;SDS011;46994;54.976;73.404;2022-07-10T15:08:31;15.13;;;5.43;;
59518;SDS011;46994;54.976;73.404;2022-07-10T15:10:58;25.92;;;5.22;;
59518;SDS011;46994;54.976;73.404;2022-07-10T15:13:26;9.82;;;5.03;;
59518;SDS011;46994;54.976;73.404;2022-07-10T15:15:53;13.93;;;4.93;;
59518;SDS011;46994;54.976;73.404;2022-07-10T15:18:20;26.52;;;6.05;;
59518;SDS011;46994;54.976;73.404;2022-07-10T15:20:47;22.70;;;5.45;;
59518;SDS011;46994;54.976;73.404;2022-07-10T15:23:14;12.35;;;6.13;;
59518;SDS011;46994;54.976;73.404;2022-07-10T15:25:41;25.40;;;6.70;;
59518;SDS011;46994;54.976;73.404;2022-07-10T15:28:08;17.60;;;6.82;;
59518;SDS011;46994;54.976;73.404;2022-07-10T15:30:37;15.98;;;7.53;;
59518;SDS011;46994;54.976;73.404;2022-07-10T15:33:05;25.20;;;8.00;;